Time;durP1;ratioP1;P1;durP2;ratioP2;P2;SDS_P1;SDS_P2;PMS_P1;PMS_P2;Temp;Humidity;BMP_temperature;BMP_pressure;BME280_temperature;BME280_humidity;BME280_pressure;Samples;Min_cycle;Max_cycle;Signal;HPM_P1;HPM_P2
2021/05/03 00:00:39;;;;;;;0.00;0.00;;;14.40;77.90;;;;;;4158628;28;20128;-45
2021/05/03 00:03:00;;;;;;;0.00;0.00;;;14.30;78.00;;;;;;4158178;28;20048;-42
2021/05/03 00:05:23;;;;;;;0.00;0.00;;;14.30;78.00;;;;;;4158461;28;20496;-43
2021/05/03 00:07:43;;;;;;;0.00;0.00;;;14.30;78.10;;;;;;4158470;28;20068;-42
2021/05/03 00:10:07;;;;;;;0.52;0.52;;;14.30;78.10;;;;;;4158134;28;20500;-43
2021/05/03 00:12:28;;;;;;;0.00;0.00;;;14.30;78.20;;;;;;4158079;28;20500;-42
2021/05/03 00:14:50;;;;;;;0.10;0.10;;;14.30;78.20;;;;;;4158321;28;20051;-43
2021/05/03 00:17:11;;;;;;;0.30;0.30;;;14.20;78.10;;;;;;4158341;28;20649;-42
2021/05/03 00:19:32;;;;;;;0.00;0.00;;;14.30;78.20;;;;;;4158267;28;20049;-42
2021/05/03 00:21:53;;;;;;;0.10;0.10;;;14.20;78.30;;;;;;4158134;28;20551;-42
2021/05/03 00:24:14;;;;;;;0.00;0.00;;;14.30;78.40;;;;;;4157964;28;20103;-42
2021/05/03 00:26:36;;;;;;;0.00;0.00;;;14.20;78.40;;;;;;4157557;28;20049;-42
2021/05/03 00:28:57;;;;;;;0.00;0.00;;;14.20;78.40;;;;;;4158495;28;20412;-46
2021/05/03 00:31:18;;;;;;;0.00;0.00;;;14.20;78.40;;;;;;4158200;28;20045;-44
2021/05/03 00:33:40;;;;;;;0.00;0.00;;;14.20;78.40;;;;;;4158186;28;20052;-42
2021/05/03 00:36:01;;;;;;;;;;;14.20;78.50;;;;;;4158549;28;20454;-42
2021/05/03 00:38:25;;;;;;;0.00;0.00;;;14.20;78.70;;;;;;4158066;28;20645;-42
2021/05/03 00:40:46;;;;;;;0.00;0.00;;;14.20;78.60;;;;;;4158067;28;20053;-42
2021/05/03 00:43:09;;;;;;;0.00;0.00;;;14.10;78.70;;;;;;4157955;28;20712;-42
2021/05/03 00:45:30;;;;;;;0.00;0.00;;;14.10;78.70;;;;;;4158321;28;20408;-42
2021/05/03 00:47:52;;;;;;;0.00;0.00;;;14.10;78.70;;;;;;4157908;28;20054;-42
2021/05/03 00:50:16;;;;;;;0.00;0.00;;;14.10;78.80;;;;;;4157633;28;20053;-42
2021/05/03 00:52:37;;;;;;;0.00;0.00;;;14.10;78.80;;;;;;4158168;28;20140;-42
2021/05/03 00:54:59;;;;;;;0.55;0.55;;;14.10;78.90;;;;;;4157197;28;20053;-42
2021/05/03 00:57:19;;;;;;;0.00;0.00;;;14.10;78.90;;;;;;4157974;28;20050;-42
2021/05/03 00:59:41;;;;;;;0.00;0.00;;;14.10;78.90;;;;;;4157917;28;20056;-44
2021/05/03 01:02:02;;;;;;;0.00;0.00;;;14.10;79.00;;;;;;4156630;28;20104;-43
2021/05/03 01:04:24;;;;;;;;;;;14.10;79.00;;;;;;4158114;28;20049;-43
2021/05/03 01:06:45;;;;;;;0.00;0.00;;;14.00;79.00;;;;;;4157831;28;19924;-42
2021/05/03 01:09:06;;;;;;;0.00;0.00;;;14.00;79.00;;;;;;4157901;28;20053;-42
2021/05/03 01:11:27;;;;;;;0.00;0.00;;;14.00;79.00;;;;;;4141407;28;20050;-42
2021/05/03 01:13:48;;;;;;;0.95;0.45;;;14.00;79.00;;;;;;4141554;28;20065;-48
2021/05/03 01:16:10;;;;;;;0.22;0.22;;;14.00;79.10;;;;;;4141225;28;20069;-48
2021/05/03 01:18:35;;;;;;;0.00;0.00;;;14.00;79.00;;;;;;4140737;28;20053;-45
2021/05/03 01:20:56;;;;;;;0.00;0.00;;;14.00;79.10;;;;;;4150699;28;20419;-43
2021/05/03 01:23:17;;;;;;;0.00;0.00;;;14.00;79.90;;;;;;4157346;28;20061;-44
2021/05/03 01:25:41;;;;;;;0.00;0.00;;;14.00;79.10;;;;;;4159840;28;20088;-42
2021/05/03 01:28:04;;;;;;;0.10;0.10;;;14.00;79.10;;;;;;4160748;28;20554;-44
2021/05/03 01:30:30;;;;;;;0.00;0.00;;;14.00;79.10;;;;;;4160770;28;20512;-42
2021/05/03 01:32:51;;;;;;;0.15;0.15;;;13.90;79.10;;;;;;4160947;28;20055;-45
2021/05/03 01:35:14;;;;;;;0.00;0.00;;;13.90;79.20;;;;;;4160875;28;20480;-43
2021/05/03 01:37:36;;;;;;;0.00;0.00;;;13.90;79.20;;;;;;4160616;28;20514;-43
2021/05/03 01:39:57;;;;;;;0.20;0.20;;;13.90;79.30;;;;;;4160573;28;20049;-44
2021/05/03 01:42:18;;;;;;;1.27;0.65;;;13.90;79.30;;;;;;4160767;28;20049;-43
2021/05/03 01:44:40;;;;;;;0.00;0.00;;;13.90;79.50;;;;;;4159668;28;20064;-42
2021/05/03 01:47:01;;;;;;;0.00;0.00;;;13.90;79.50;;;;;;4160600;28;20077;-43
2021/05/03 01:49:23;;;;;;;0.00;0.00;;;13.90;79.50;;;;;;4160574;28;20140;-44
2021/05/03 01:51:43;;;;;;;0.00;0.00;;;13.80;79.40;;;;;;4160087;28;20053;-43
2021/05/03 01:54:09;;;;;;;0.00;0.00;;;13.90;79.50;;;;;;4148503;28;20054;-42
2021/05/03 01:56:30;;;;;;;0.15;0.15;;;13.90;79.60;;;;;;4160637;28;20207;-43
2021/05/03 01:58:51;;;;;;;0.00;0.00;;;13.80;79.50;;;;;;4160186;28;20140;-43
2021/05/03 02:01:12;;;;;;;;;;;13.80;79.50;;;;;;4160852;28;20412;-43
2021/05/03 02:03:34;;;;;;;0.00;0.00;;;13.80;79.60;;;;;;4160407;28;19947;-43
2021/05/03 02:05:55;;;;;;;0.00;0.00;;;13.80;79.50;;;;;;4160183;28;20057;-43
2021/05/03 02:08:17;;;;;;;0.05;0.05;;;13.80;79.50;;;;;;4160346;28;20092;-42
2021/05/03 02:10:39;;;;;;;0.00;0.00;;;13.80;79.50;;;;;;4143815;28;20054;-42
2021/05/03 02:13:01;;;;;;;0.05;0.05;;;13.80;79.40;;;;;;4143782;28;20128;-43
2021/05/03 02:15:22;;;;;;;0.00;0.00;;;13.80;79.40;;;;;;4143947;28;20087;-42
2021/05/03 02:17:43;;;;;;;0.00;0.00;;;13.80;79.50;;;;;;4144010;28;20060;-42
2021/05/03 02:20:05;;;;;;;0.00;0.00;;;13.80;79.40;;;;;;4143731;28;20451;-42
2021/05/03 02:22:25;;;;;;;0.00;0.00;;;13.80;79.50;;;;;;4159017;28;20049;-42
2021/05/03 02:24:46;;;;;;;0.00;0.00;;;13.80;79.50;;;;;;4159940;28;20100;-43
2021/05/03 02:27:09;;;;;;;0.00;0.00;;;13.80;79.40;;;;;;4159984;28;20135;-42
2021/05/03 02:29:31;;;;;;;0.00;0.00;;;13.80;79.50;;;;;;4160189;28;20408;-42
2021/05/03 02:31:52;;;;;;;0.00;0.00;;;13.80;79.50;;;;;;4158730;28;20524;-42
2021/05/03 02:34:14;;;;;;;0.00;0.00;;;13.80;79.50;;;;;;4160003;28;20140;-42
2021/05/03 02:36:35;;;;;;;0.00;0.00;;;13.80;79.50;;;;;;4158825;28;20041;-42
2021/05/03 02:38:55;;;;;;;0.00;0.00;;;13.70;79.40;;;;;;4159598;28;20492;-41
2021/05/03 02:41:17;;;;;;;0.00;0.00;;;13.70;79.40;;;;;;4159506;28;20049;-42
2021/05/03 02:43:38;;;;;;;0.00;0.00;;;13.70;79.40;;;;;;4143163;28;20045;-43
2021/05/03 02:45:59;;;;;;;0.00;0.00;;;13.70;79.40;;;;;;4143564;28;20054;-42
2021/05/03 02:48:20;;;;;;;0.00;0.00;;;13.70;79.60;;;;;;4143381;28;20137;-44
2021/05/03 02:50:41;;;;;;;0.00;0.00;;;13.70;79.60;;;;;;4143077;28;20069;-42
2021/05/03 02:53:03;;;;;;;0.00;0.00;;;13.70;79.60;;;;;;4146840;28;20045;-42
2021/05/03 02:55:24;;;;;;;0.00;0.00;;;13.70;79.50;;;;;;4142976;28;20069;-42
2021/05/03 02:57:48;;;;;;;0.00;0.00;;;13.70;79.60;;;;;;4142988;28;20108;-42
2021/05/03 03:00:14;;;;;;;0.00;0.00;;;13.70;79.60;;;;;;4143189;28;20390;-44
2021/05/03 03:02:35;;;;;;;0.25;0.25;;;13.70;79.70;;;;;;4143169;28;20068;-42
2021/05/03 03:04:56;;;;;;;0.00;0.00;;;13.70;79.70;;;;;;4143015;28;20061;-42
2021/05/03 03:07:17;;;;;;;0.00;0.00;;;13.70;79.70;;;;;;4143447;28;20068;-43
2021/05/03 03:09:38;;;;;;;0.70;0.70;;;13.70;79.80;;;;;;4153615;28;20064;-44
2021/05/03 03:12:00;;;;;;;0.00;0.00;;;13.70;79.80;;;;;;4159184;28;20041;-42
2021/05/03 03:14:21;;;;;;;0.00;0.00;;;13.70;79.80;;;;;;4159352;28;20053;-42
2021/05/03 03:16:43;;;;;;;0.00;0.00;;;13.70;79.90;;;;;;4159324;28;20048;-42
2021/05/03 03:19:04;;;;;;;0.00;0.00;;;13.70;79.90;;;;;;4159178;28;20103;-42
2021/05/03 03:21:25;;;;;;;0.00;0.00;;;13.70;79.80;;;;;;4158998;28;20045;-44
2021/05/03 03:23:46;;;;;;;;;;;13.70;79.90;;;;;;4158942;28;20056;-41
2021/05/03 03:26:07;;;;;;;0.00;0.00;;;13.70;80.00;;;;;;4159078;28;19925;-41
2021/05/03 03:28:28;;;;;;;0.00;0.00;;;13.70;80.00;;;;;;4159243;28;20479;-42
2021/05/03 03:30:51;;;;;;;0.00;0.00;;;13.70;80.00;;;;;;4159019;28;20099;-42
2021/05/03 03:33:13;;;;;;;0.00;0.00;;;13.70;80.00;;;;;;4159040;28;20132;-43
2021/05/03 03:35:34;;;;;;;0.00;0.00;;;13.70;80.00;;;;;;4159033;28;20068;-42
2021/05/03 03:37:55;;;;;;;0.00;0.00;;;13.70;80.00;;;;;;4158556;28;20053;-51
2021/05/03 03:40:17;;;;;;;0.10;0.10;;;13.70;80.00;;;;;;4158997;28;20049;-42
2021/05/03 03:42:38;;;;;;;0.00;0.00;;;13.70;80.00;;;;;;4159048;28;20492;-41
2021/05/03 03:44:59;;;;;;;0.00;0.00;;;13.70;80.00;;;;;;4158534;28;20058;-42
2021/05/03 03:47:20;;;;;;;;;;;13.70;80.00;;;;;;4158834;28;20055;-40
2021/05/03 03:49:42;;;;;;;0.00;0.00;;;13.70;80.00;;;;;;4158384;28;20016;-43
2021/05/03 03:52:03;;;;;;;0.00;0.00;;;13.60;80.00;;;;;;4158527;28;20052;-41
2021/05/03 03:54:24;;;;;;;0.00;0.00;;;13.60;79.90;;;;;;4151445;28;20064;-41
2021/05/03 03:56:45;;;;;;;0.00;0.00;;;13.60;79.90;;;;;;4158227;28;20056;-42
2021/05/03 03:59:09;;;;;;;0.00;0.00;;;13.70;80.00;;;;;;4158456;28;20069;-41
2021/05/03 04:01:31;;;;;;;0.00;0.00;;;13.60;79.90;;;;;;4158298;28;20056;-41
2021/05/03 04:03:55;;;;;;;0.00;0.00;;;13.60;79.90;;;;;;4158365;28;20067;-41
2021/05/03 04:06:23;;;;;;;0.00;0.00;;;13.60;80.00;;;;;;4158523;28;20120;-41
2021/05/03 04:08:49;;;;;;;0.00;0.00;;;13.60;80.00;;;;;;4157652;28;20051;-41
2021/05/03 04:11:18;;;;;;;0.00;0.00;;;13.60;79.90;;;;;;4158516;28;20049;-41
2021/05/03 04:21:49;;;;;;;0.00;0.00;;;13.60;79.80;;;;;;4157894;28;20491;-42
2021/05/03 04:24:14;;;;;;;0.00;0.00;;;13.60;79.80;;;;;;4157837;28;20559;-42
2021/05/03 04:26:35;;;;;;;0.00;0.00;;;13.60;79.80;;;;;;4158129;28;20119;-41
2021/05/03 04:28:56;;;;;;;0.00;0.00;;;13.60;79.80;;;;;;4158138;28;20492;-42
2021/05/03 04:31:17;;;;;;;0.00;0.00;;;13.60;79.80;;;;;;4158001;28;20049;-41
2021/05/03 04:33:38;;;;;;;;;;;13.60;79.70;;;;;;4158659;28;20415;-42
2021/05/03 04:35:59;;;;;;;0.00;0.00;;;13.60;79.80;;;;;;4158181;28;19999;-41
2021/05/03 04:38:21;;;;;;;0.00;0.00;;;13.60;79.70;;;;;;4144179;28;20144;-41
2021/05/03 04:40:45;;;;;;;0.00;0.00;;;13.60;79.60;;;;;;4156441;28;20053;-41
2021/05/03 04:43:06;;;;;;;0.00;0.00;;;13.60;79.70;;;;;;4158029;28;20567;-42
2021/05/03 04:45:27;;;;;;;0.00;0.00;;;13.60;79.70;;;;;;4158191;28;20057;-41
2021/05/03 04:47:48;;;;;;;0.00;0.00;;;13.60;79.60;;;;;;4158075;28;20515;-41
2021/05/03 04:50:11;;;;;;;0.05;0.05;;;13.60;79.60;;;;;;4158528;28;20423;-42
2021/05/03 04:52:32;;;;;;;0.00;0.00;;;13.60;79.60;;;;;;4157791;28;20053;-43
2021/05/03 04:54:54;;;;;;;0.00;0.00;;;13.60;79.70;;;;;;4158046;28;20103;-41
2021/05/03 04:57:15;;;;;;;0.00;0.00;;;13.60;79.80;;;;;;4158250;28;20052;-41
2021/05/03 04:59:36;;;;;;;0.00;0.00;;;13.60;79.80;;;;;;4158929;28;20077;-42
2021/05/03 05:01:57;;;;;;;0.05;0.05;;;13.60;79.70;;;;;;4161345;28;20060;-40
2021/05/03 05:04:18;;;;;;;0.00;0.00;;;13.50;79.70;;;;;;4160940;28;20049;-42
2021/05/03 05:06:39;;;;;;;0.00;0.00;;;13.60;79.80;;;;;;4161020;28;20068;-41
2021/05/03 05:09:04;;;;;;;0.00;0.00;;;13.60;79.70;;;;;;4161200;28;20494;-42
2021/05/03 05:11:25;;;;;;;0.00;0.00;;;13.50;79.60;;;;;;4161103;28;20046;-41
2021/05/03 05:13:46;;;;;;;0.00;0.00;;;13.50;79.60;;;;;;4160983;28;20052;-42
2021/05/03 05:16:07;;;;;;;0.00;0.00;;;13.50;79.70;;;;;;4161144;28;20696;-41
2021/05/03 05:18:28;;;;;;;0.00;0.00;;;13.50;79.80;;;;;;4160860;28;20115;-42
2021/05/03 05:20:49;;;;;;;0.00;0.00;;;13.50;79.90;;;;;;4161155;28;20057;-42
2021/05/03 05:23:11;;;;;;;0.00;0.00;;;13.50;79.90;;;;;;4160703;28;20064;-42
2021/05/03 05:25:32;;;;;;;0.00;0.00;;;13.50;80.00;;;;;;4161039;28;20068;-42
2021/05/03 05:27:54;;;;;;;;;;;13.50;80.00;;;;;;4161201;28;20046;-42
2021/05/03 05:30:16;;;;;;;0.00;0.00;;;13.50;80.20;;;;;;4160917;28;19921;-41
2021/05/03 05:32:37;;;;;;;0.20;0.20;;;13.50;81.00;;;;;;4160625;28;20041;-42
2021/05/03 05:34:58;;;;;;;0.00;0.00;;;13.50;80.50;;;;;;4159430;28;20423;-43
2021/05/03 05:37:19;;;;;;;0.00;0.00;;;13.50;81.10;;;;;;4160940;28;20080;-41
2021/05/03 05:39:40;;;;;;;0.00;0.00;;;13.60;81.00;;;;;;4160623;28;20115;-41
2021/05/03 05:42:01;;;;;;;0.00;0.00;;;13.60;80.80;;;;;;4159393;28;20059;-41
2021/05/03 05:44:23;;;;;;;0.00;0.00;;;13.60;80.60;;;;;;4160309;28;20522;-41
2021/05/03 05:46:44;;;;;;;0.00;0.00;;;13.60;80.50;;;;;;4160745;28;20045;-41
2021/05/03 05:49:07;;;;;;;0.00;0.00;;;13.60;80.50;;;;;;4160414;28;20045;-41
2021/05/03 05:51:28;;;;;;;0.00;0.00;;;13.50;80.50;;;;;;4160962;28;20638;-48
2021/05/03 05:53:48;;;;;;;0.00;0.00;;;13.50;80.60;;;;;;4160337;28;20152;-48
2021/05/03 05:56:09;;;;;;;0.00;0.00;;;13.50;80.70;;;;;;4160504;28;20045;-46
2021/05/03 05:58:32;;;;;;;0.00;0.00;;;13.50;80.60;;;;;;4160406;28;20480;-42
2021/05/03 06:00:54;;;;;;;0.00;0.00;;;13.50;80.60;;;;;;4160307;28;20049;-41
2021/05/03 06:03:14;;;;;;;;;;;13.50;80.70;;;;;;4160321;28;20053;-41
2021/05/03 06:05:36;;;;;;;0.00;0.00;;;13.50;80.80;;;;;;4160379;28;19929;-41
2021/05/03 06:07:57;;;;;;;;;;;13.50;80.60;;;;;;4160537;28;20103;-44
2021/05/03 06:10:18;;;;;;;20.23;2.15;;;13.50;80.70;;;;;;4160362;28;20346;-41
2021/05/03 06:12:39;;;;;;;0.00;0.00;;;13.40;80.60;;;;;;4160361;28;20053;-41
2021/05/03 06:15:00;;;;;;;0.00;0.00;;;13.40;80.70;;;;;;4160274;28;20045;-41
2021/05/03 06:17:22;;;;;;;0.00;0.00;;;13.40;80.70;;;;;;4160148;28;20061;-41
2021/05/03 06:19:42;;;;;;;0.00;0.00;;;13.40;80.70;;;;;;4143557;28;20070;-42
2021/05/03 06:22:03;;;;;;;0.40;0.40;;;13.40;80.60;;;;;;4143685;28;20049;-42
2021/05/03 06:24:24;;;;;;;0.00;0.00;;;13.40;80.40;;;;;;4158027;28;20054;-42
2021/05/03 06:26:46;;;;;;;0.22;0.22;;;13.40;80.40;;;;;;4160014;28;20046;-44
2021/05/03 06:29:07;;;;;;;;;;;13.40;80.30;;;;;;4160194;28;20073;-41
2021/05/03 06:31:30;;;;;;;0.00;0.00;;;13.40;80.30;;;;;;4160066;28;19921;-42
2021/05/03 06:33:53;;;;;;;0.08;0.08;;;13.40;79.90;;;;;;4159585;28;20065;-45
2021/05/03 06:36:14;;;;;;;0.68;0.68;;;13.40;80.10;;;;;;4159785;28;20124;-44
2021/05/03 06:38:35;;;;;;;1.00;0.90;;;13.40;81.50;;;;;;4159277;28;20041;-45
2021/05/03 06:41:00;;;;;;;0.10;0.10;;;13.50;81.50;;;;;;4159791;28;20578;-43
2021/05/03 06:43:21;;;;;;;0.00;0.00;;;13.50;81.00;;;;;;4159859;28;20142;-42
2021/05/03 06:45:42;;;;;;;0.13;0.13;;;13.70;81.50;;;;;;4159877;28;20049;-42
2021/05/03 06:48:04;;;;;;;0.00;0.00;;;14.40;77.50;;;;;;4159603;28;20511;-43
2021/05/03 06:50:27;;;;;;;0.00;0.00;;;15.40;72.90;;;;;;4158855;28;20045;-43
2021/05/03 06:52:48;;;;;;;0.10;0.10;;;16.50;67.70;;;;;;4143190;28;20049;-42
2021/05/03 06:55:09;;;;;;;0.10;0.10;;;17.50;63.10;;;;;;4143214;28;20097;-43
2021/05/03 06:57:30;;;;;;;0.88;0.73;;;18.60;59.30;;;;;;4142930;28;20508;-43
2021/05/03 06:59:51;;;;;;;0.00;0.00;;;19.60;56.30;;;;;;4143154;28;20050;-43
2021/05/03 07:02:13;;;;;;;0.10;0.10;;;20.50;53.80;;;;;;4156407;28;20049;-44
2021/05/03 07:04:35;;;;;;;0.00;0.00;;;21.20;52.20;;;;;;4159315;28;20053;-45
2021/05/03 07:06:56;;;;;;;0.63;0.63;;;21.50;51.20;;;;;;4159524;28;20546;-43
2021/05/03 07:09:17;;;;;;;13.55;1.30;;;21.70;51.00;;;;;;4147153;28;20053;-44
2021/05/03 07:11:40;;;;;;;0.00;0.00;;;21.60;51.10;;;;;;4159464;28;20075;-43
2021/05/03 07:14:01;;;;;;;0.13;0.13;;;21.30;51.70;;;;;;4158812;28;20095;-43
2021/05/03 07:16:23;;;;;;;0.10;0.10;;;21.00;52.60;;;;;;4159234;28;20103;-44
2021/05/03 07:18:47;;;;;;;0.00;0.00;;;20.60;53.90;;;;;;4159355;28;20128;-43
2021/05/03 07:21:08;;;;;;;0.00;0.00;;;20.10;55.00;;;;;;4158686;28;20559;-43
2021/05/03 07:23:29;;;;;;;0.55;0.43;;;19.80;56.00;;;;;;4158561;28;20411;-44
2021/05/03 07:25:54;;;;;;;0.08;0.08;;;19.40;56.90;;;;;;4159285;28;20054;-47
2021/05/03 07:28:16;;;;;;;0.30;0.30;;;19.10;57.80;;;;;;4157808;28;20049;-43
2021/05/03 07:30:37;;;;;;;;;;;18.70;58.70;;;;;;4159783;28;20460;-48
2021/05/03 07:32:58;;;;;;;1.17;0.55;;;18.50;59.60;;;;;;4159080;28;19928;-46
2021/05/03 07:35:19;;;;;;;0.00;0.00;;;18.20;60.60;;;;;;4158693;28;20045;-45
2021/05/03 07:37:40;;;;;;;0.00;0.00;;;18.00;61.20;;;;;;4158515;28;20774;-44
2021/05/03 07:40:02;;;;;;;;;;;18.20;60.80;;;;;;4159257;28;20041;-49
2021/05/03 07:42:23;;;;;;;2.22;0.60;;;18.40;60.20;;;;;;4151662;28;19947;-45
2021/05/03 07:45:03;;;;;;;0.00;0.00;;;18.40;59.90;;;;;;4166296;28;20123;-45
2021/05/03 07:47:26;;;;;;;0.63;0.63;;;18.30;60.00;;;;;;4158341;28;20063;-44
2021/05/03 07:49:47;;;;;;;0.40;0.40;;;18.20;60.70;;;;;;4158958;28;20041;-44
2021/05/03 07:52:08;;;;;;;1.50;1.40;;;18.00;61.30;;;;;;4158588;28;20488;-45
2021/05/03 07:54:29;;;;;;;1.75;1.08;;;18.00;61.50;;;;;;4154614;28;20069;-44
2021/05/03 07:56:51;;;;;;;5.13;0.50;;;18.10;61.50;;;;;;4151735;28;20052;-44
2021/05/03 07:59:13;;;;;;;0.00;0.00;;;18.10;61.30;;;;;;4158329;28;20072;-44
2021/05/03 08:01:34;;;;;;;0.00;0.00;;;18.10;61.20;;;;;;4159882;28;20072;-44
2021/05/03 08:03:55;;;;;;;;;;;18.20;61.20;;;;;;4157076;28;20061;-45
2021/05/03 08:06:17;;;;;;;0.45;0.45;;;18.20;61.20;;;;;;4158940;28;19921;-43
2021/05/03 08:08:37;;;;;;;;;;;18.10;61.40;;;;;;4158678;28;20045;-47
2021/05/03 08:10:58;;;;;;;0.00;0.00;;;18.00;62.00;;;;;;4158297;28;19925;-45
2021/05/03 08:13:20;;;;;;;0.00;0.00;;;17.80;62.60;;;;;;4158628;28;20065;-45
2021/05/03 08:15:46;;;;;;;0.08;0.08;;;17.80;62.70;;;;;;4158540;28;20071;-51
2021/05/03 08:18:07;;;;;;;0.13;0.13;;;18.00;61.80;;;;;;4157158;28;20052;-44
2021/05/03 08:20:29;;;;;;;0.00;0.00;;;18.20;61.10;;;;;;4158079;28;20049;-44
2021/05/03 08:22:52;;;;;;;0.70;0.70;;;18.30;60.60;;;;;;4157272;28;20480;-44
2021/05/03 08:25:14;;;;;;;0.55;0.55;;;18.30;60.90;;;;;;4157810;28;20045;-43
2021/05/03 08:27:36;;;;;;;0.10;0.10;;;18.20;61.10;;;;;;4165530;28;20049;-44
2021/05/03 08:29:59;;;;;;;0.00;0.00;;;18.30;61.20;;;;;;4174554;28;20453;-44
2021/05/03 08:32:21;;;;;;;0.80;0.52;;;18.30;60.80;;;;;;4146116;28;20055;-44
2021/05/03 08:34:42;;;;;;;;;;;18.30;60.60;;;;;;4157399;28;20046;-43
2021/05/03 08:37:03;;;;;;;0.03;0.03;;;18.30;60.40;;;;;;4157633;28;19995;-44
2021/05/03 08:39:25;;;;;;;0.65;0.65;;;18.30;60.50;;;;;;4141969;28;20141;-44
2021/05/03 08:41:46;;;;;;;0.00;0.00;;;18.30;60.90;;;;;;4141987;28;20077;-47
2021/05/03 08:44:07;;;;;;;0.00;0.00;;;18.20;60.40;;;;;;4161980;28;20037;-45
2021/05/03 08:46:32;;;;;;;37.85;1.15;;;18.20;60.60;;;;;;4157286;28;20057;-43
2021/05/03 08:48:57;;;;;;;0.20;0.20;;;18.00;61.00;;;;;;4155440;28;20722;-43
2021/05/03 08:51:28;;;;;;;0.20;0.20;;;17.90;61.40;;;;;;4169964;28;20461;-43
2021/05/03 08:53:56;;;;;;;0.00;0.00;;;17.80;62.20;;;;;;4149444;28;20038;-43
2021/05/03 08:56:17;;;;;;;0.00;0.00;;;17.80;62.20;;;;;;4157077;28;20049;-47
2021/05/03 08:58:39;;;;;;;;;;;17.70;62.20;;;;;;4158839;28;20058;-43
2021/05/03 09:01:00;;;;;;;0.10;0.10;;;17.70;62.40;;;;;;4167078;28;20350;-43
2021/05/03 09:03:24;;;;;;;2.05;1.35;;;17.60;62.70;;;;;;4158780;28;20053;-43
2021/05/03 09:05:45;;;;;;;0.20;0.20;;;17.60;62.80;;;;;;4157672;28;20492;-43
2021/05/03 09:08:06;;;;;;;0.00;0.00;;;17.70;62.50;;;;;;4157496;28;20061;-43
2021/05/03 09:10:27;;;;;;;0.25;0.25;;;17.80;62.10;;;;;;4157768;28;20049;-44
2021/05/03 09:12:49;;;;;;;0.30;0.30;;;18.00;61.40;;;;;;4157957;28;20049;-44
2021/05/03 09:15:11;;;;;;;1.55;1.45;;;18.20;60.30;;;;;;4157520;28;20515;-43
2021/05/03 09:17:34;;;;;;;0.30;0.30;;;18.30;59.70;;;;;;4157692;28;20045;-44
2021/05/03 09:19:57;;;;;;;0.25;0.20;;;18.30;59.50;;;;;;4157717;28;20046;-45
2021/05/03 09:22:32;;;;;;;0.45;0.45;;;18.20;59.80;;;;;;4157418;28;20081;-43
2021/05/03 09:24:56;;;;;;;0.00;0.00;;;18.00;60.60;;;;;;4157335;28;20050;-44
2021/05/03 09:27:21;;;;;;;1.65;1.55;;;17.80;61.00;;;;;;4157591;28;20537;-43
2021/05/03 09:29:46;;;;;;;0.30;0.30;;;17.60;61.80;;;;;;4157495;28;20091;-43
2021/05/03 09:32:10;;;;;;;0.45;0.10;;;17.60;62.10;;;;;;4157757;28;20057;-43
2021/05/03 09:34:33;;;;;;;9.60;1.40;;;17.80;61.90;;;;;;4161716;28;20049;-46
2021/05/03 09:37:19;;;;;;;0.10;0.10;;;17.90;61.40;;;;;;4173522;28;20453;-45
2021/05/03 09:39:40;;;;;;;2.10;0.47;;;17.90;61.30;;;;;;4141261;28;20060;-44
2021/05/03 09:42:01;;;;;;;1.42;1.33;;;17.80;61.50;;;;;;4142196;28;20640;-44
2021/05/03 09:44:22;;;;;;;0.80;0.40;;;17.80;61.60;;;;;;4152035;28;20054;-45
2021/05/03 09:46:46;;;;;;;0.00;0.00;;;18.00;61.30;;;;;;4160051;28;20511;-42
2021/05/03 09:49:10;;;;;;;0.35;0.35;;;18.10;61.40;;;;;;4160730;28;20075;-44
2021/05/03 09:51:36;;;;;;;6.60;3.03;;;18.20;61.50;;;;;;4159811;28;20495;-48
2021/05/03 09:54:07;;;;;;;0.38;0.38;;;18.20;61.40;;;;;;4160096;28;20045;-44
2021/05/03 09:56:52;;;;;;;2.00;0.57;;;18.20;62.40;;;;;;4159548;28;20051;-43
2021/05/03 09:59:34;;;;;;;2.10;1.73;;;18.10;62.70;;;;;;4143888;28;20057;-44
2021/05/03 10:02:10;;;;;;;4.22;2.55;;;18.20;63.10;;;;;;4158464;28;20049;-46
2021/05/03 10:04:33;;;;;;;3.05;2.85;;;18.40;62.60;;;;;;4159790;28;20053;-45
2021/05/03 10:06:54;;;;;;;14.20;4.28;;;18.60;61.70;;;;;;4160194;28;20500;-46
2021/05/03 10:09:16;;;;;;;15.40;7.25;;;18.70;61.20;;;;;;4144127;28;20461;-46
2021/05/03 10:11:39;;;;;;;26.80;8.50;;;18.70;61.10;;;;;;4143732;28;20065;-43
2021/05/03 10:14:00;;;;;;;6.68;6.05;;;18.60;61.20;;;;;;4156508;28;20057;-45
2021/05/03 10:16:21;;;;;;;14.68;9.23;;;18.40;61.30;;;;;;4160307;28;20061;-45
2021/05/03 10:18:43;;;;;;;19.60;7.57;;;18.30;61.80;;;;;;4160133;28;20112;-43
2021/05/03 10:21:07;;;;;;;5.93;5.45;;;18.20;62.30;;;;;;4168444;28;20137;-44
2021/05/03 10:23:29;;;;;;;8.70;7.38;;;18.00;62.50;;;;;;4159818;28;20053;-43
2021/05/03 10:25:56;;;;;;;3.08;2.97;;;17.90;63.00;;;;;;4146980;28;20057;-48
2021/05/03 10:28:17;;;;;;;11.95;8.32;;;17.80;63.30;;;;;;4159867;28;20045;-45
2021/05/03 10:30:43;;;;;;;2.45;2.28;;;17.70;63.70;;;;;;4159993;28;20049;-43
2021/05/03 10:33:06;;;;;;;4.22;3.70;;;17.50;64.30;;;;;;4159677;28;20046;-47
2021/05/03 10:35:28;;;;;;;5.93;5.38;;;17.30;64.90;;;;;;4159459;28;20128;-46
2021/05/03 10:37:50;;;;;;;10.05;6.38;;;17.20;65.40;;;;;;4159550;28;20061;-44
2021/05/03 10:40:41;;;;;;;14.55;6.30;;;17.10;66.10;;;;;;4159796;28;20849;-46
2021/05/03 10:43:18;;;;;;;;;;;17.10;66.40;;;;;;4093679;28;20086;-46
2021/05/03 10:45:44;;;;;;;4.40;4.07;;;17.30;65.80;;;;;;4156695;28;19995;-47
2021/05/03 10:48:28;;;;;;;14.20;7.07;;;17.50;64.90;;;;;;4159556;28;20060;-45
2021/05/03 10:50:50;;;;;;;4.97;2.05;;;17.80;63.70;;;;;;4159622;28;20522;-45
2021/05/03 10:53:32;;;;;;;5.65;5.43;;;18.20;62.10;;;;;;4159473;28;20072;-43
2021/05/03 10:55:55;;;;;;;7.10;4.35;;;18.50;60.90;;;;;;4159427;28;20442;-44
2021/05/03 10:58:17;;;;;;;8.57;4.68;;;18.50;60.40;;;;;;4158694;28;20041;-42
2021/05/03 11:00:38;;;;;;;4.90;4.47;;;18.50;60.30;;;;;;4159491;28;20045;-44
2021/05/03 11:02:59;;;;;;;;;;;18.50;60.40;;;;;;4163609;28;20041;-44
2021/05/03 11:05:24;;;;;;;2.40;2.38;;;18.40;60.80;;;;;;4163479;28;19925;-44
2021/05/03 11:08:27;;;;;;;10.27;4.43;;;18.40;61.10;;;;;;4159356;28;20405;-46
2021/05/03 11:10:58;;;;;;;4.68;2.80;;;18.20;61.60;;;;;;4142573;28;20053;-48
2021/05/03 11:13:48;;;;;;;5.63;4.07;;;18.10;62.30;;;;;;4143010;28;20081;-44
2021/05/03 11:16:46;;;;;;;5.88;5.32;;;17.90;62.60;;;;;;4143038;28;20046;-44
2021/05/03 11:19:48;;;;;;;3.58;3.28;;;17.70;63.40;;;;;;4142678;28;20050;-45
2021/05/03 11:22:15;;;;;;;5.78;3.03;;;17.60;64.00;;;;;;4142367;28;20150;-45
2021/05/03 11:24:49;;;;;;;7.70;3.83;;;17.50;64.40;;;;;;4142619;28;20060;-44
2021/05/03 11:27:15;;;;;;;5.53;4.90;;;17.40;64.80;;;;;;4142408;28;20511;-43
2021/05/03 11:29:41;;;;;;;11.80;3.95;;;17.30;65.20;;;;;;4159263;28;20068;-44
2021/05/03 11:32:02;;;;;;;4.57;2.67;;;17.20;65.60;;;;;;4158676;28;20100;-46
2021/05/03 11:34:27;;;;;;;;;;;17.10;66.00;;;;;;4159347;28;20053;-43
2021/05/03 11:36:58;;;;;;;11.70;3.10;;;17.00;66.30;;;;;;4158902;28;20417;-46
2021/05/03 11:39:31;;;;;;;2.40;2.22;;;16.90;66.80;;;;;;4158836;28;20744;-44
2021/05/03 11:42:25;;;;;;;1.73;1.73;;;17.10;66.20;;;;;;4158382;28;20129;-46
2021/05/03 11:44:50;;;;;;;2.15;1.98;;;17.50;64.50;;;;;;4158866;28;20124;-46
2021/05/03 11:47:11;;;;;;;2.45;2.28;;;17.80;63.30;;;;;;4158792;28;20551;-46
2021/05/03 11:49:44;;;;;;;2.00;1.95;;;17.90;62.60;;;;;;4158929;28;20045;-46
2021/05/03 11:52:05;;;;;;;1.45;1.45;;;18.00;62.40;;;;;;4158461;28;20049;-51
2021/05/03 11:54:28;;;;;;;0.45;0.45;;;17.90;62.10;;;;;;4158698;28;20057;-51
2021/05/03 11:56:54;;;;;;;24.98;2.45;;;17.90;62.00;;;;;;4158839;28;20076;-49
2021/05/03 11:59:17;;;;;;;38.60;6.20;;;17.90;61.90;;;;;;4158378;28;20156;-50
2021/05/03 12:01:58;;;;;;;2.13;1.98;;;17.90;62.20;;;;;;4158618;28;20053;-48
2021/05/03 12:04:35;;;;;;;1.27;1.25;;;17.80;62.20;;;;;;4158098;28;20049;-44
2021/05/03 12:06:56;;;;;;;2.97;2.78;;;17.80;62.70;;;;;;4150710;28;20045;-45
2021/05/03 12:09:17;;;;;;;3.20;2.95;;;17.70;62.90;;;;;;4167902;28;20059;-46
2021/05/03 12:11:53;;;;;;;1.05;1.05;;;17.60;63.20;;;;;;4174910;28;20056;-46
2021/05/03 12:14:14;;;;;;;0.80;0.80;;;17.50;63.60;;;;;;4141577;28;20046;-44
2021/05/03 12:16:38;;;;;;;0.95;0.95;;;17.40;63.80;;;;;;4141796;28;20556;-46
2021/05/03 12:18:59;;;;;;;0.45;0.45;;;17.30;64.10;;;;;;4156846;28;20048;-44
2021/05/03 12:21:21;;;;;;;7.03;2.50;;;17.40;63.80;;;;;;4158408;28;20416;-45
2021/05/03 12:23:42;;;;;;;1.35;1.35;;;17.50;63.30;;;;;;4157963;28;20049;-47
2021/05/03 12:26:10;;;;;;;1.48;1.33;;;17.60;63.30;;;;;;4157521;28;20128;-45
2021/05/03 12:28:35;;;;;;;0.80;0.80;;;17.60;63.40;;;;;;4158219;28;20172;-48
2021/05/03 12:30:58;;;;;;;13.35;2.13;;;17.50;63.90;;;;;;4158378;28;20107;-45
2021/05/03 12:33:20;;;;;;;2.72;1.73;;;17.40;64.30;;;;;;4158268;28;20041;-43
2021/05/03 12:35:43;;;;;;;3.00;2.80;;;17.50;64.50;;;;;;4157710;28;20053;-45
2021/05/03 12:38:17;;;;;;;7.80;2.25;;;17.50;65.10;;;;;;4158160;28;20049;-45